Time;durP1;ratioP1;P1;durP2;ratioP2;P2;SDS_P1;SDS_P2;PMS_P1;PMS_P2;Temp;Humidity;BMP_temperature;BMP_pressure;BME280_temperature;BME280_humidity;BME280_pressure;Samples;Min_cycle;Max_cycle;Signal;HPM_P1;HPM_P2
2022/06/27 00:01:10;;;;;;;6.78;5.00;;;;;;;20.46;55.24;100165.76;2024656;86;21072;-74
2022/06/27 00:04:11;;;;;;;5.35;4.58;;;;;;;20.40;55.30;100168.03;2022677;86;20962;-89
2022/06/27 00:07:15;;;;;;;9.33;4.97;;;;;;;20.34;55.54;100168.42;2026689;86;21005;-74
2022/06/27 00:10:20;;;;;;;5.08;4.53;;;;;;;20.26;55.74;100163.89;2001910;87;21016;-73
2022/06/27 00:13:21;;;;;;;5.08;4.53;;;;;;;20.15;56.01;100172.22;2014909;86;21141;-71
2022/06/27 00:16:25;;;;;;;5.22;4.72;;;;;;;20.07;56.20;100172.00;2071912;84;20979;-76
2022/06/27 00:19:29;;;;;;;8.20;4.67;;;;;;;19.98;56.39;100178.77;2073801;84;21551;-89
2022/06/27 00:22:30;;;;;;;7.62;5.08;;;;;;;19.89;56.67;100175.56;2076504;84;21071;-74
2022/06/27 00:25:36;;;;;;;6.45;5.35;;;;;;;19.79;57.00;100173.09;2077680;84;21050;-72
2022/06/27 00:28:44;;;;;;;10.90;5.35;;;;;;;19.70;57.18;100177.44;2074114;84;21004;-76
2022/06/27 00:31:40;;;;;;;7.33;5.00;;;;;;;19.60;57.28;100167.71;2065523;84;21673;-71
2022/06/27 00:34:44;;;;;;;5.62;5.03;;;;;;;19.58;57.84;100176.52;2079675;83;21033;-72
2022/06/27 00:37:45;;;;;;;7.78;5.30;;;;;;;19.55;57.70;100171.59;2078545;84;21527;-72
2022/06/27 00:40:49;;;;;;;5.92;4.83;;;;;;;19.53;57.75;100175.55;2080073;83;21639;-75
2022/06/27 00:43:52;;;;;;;6.62;5.17;;;;;;;19.48;57.89;100174.38;2075618;84;21047;-73
2022/06/27 00:46:54;;;;;;;8.30;5.50;;;;;;;19.45;58.13;100182.86;2079817;84;21048;-72
2022/06/27 00:49:58;;;;;;;7.58;5.85;;;;;;;19.40;58.22;100181.39;2074704;84;21042;-72
2022/06/27 00:52:59;;;;;;;10.08;6.12;;;;;;;19.33;58.46;100179.27;2080077;83;21078;-72
2022/06/27 00:56:03;;;;;;;9.93;5.55;;;;;;;19.24;58.56;100177.92;2081716;84;20993;-73
2022/06/27 00:59:06;;;;;;;7.87;6.03;;;;;;;19.17;58.81;100172.59;2076626;84;21024;-72
2022/06/27 01:02:09;;;;;;;8.68;5.25;;;;;;;19.14;58.90;100177.60;2075775;84;21022;-72
2022/06/27 01:05:16;;;;;;;9.93;6.47;;;;;;;19.11;58.87;100172.14;2079419;84;20998;-75
2022/06/27 01:08:23;;;;;;;8.15;5.67;;;;;;;19.09;59.03;100180.13;2078197;84;21048;-71
2022/06/27 01:11:26;;;;;;;10.65;5.95;;;;;;;19.04;59.06;100174.09;2080226;84;21081;-71
2022/06/27 01:14:30;;;;;;;7.37;5.33;;;;;;;19.01;59.28;100178.56;2075354;84;21058;-72
2022/06/27 01:17:33;;;;;;;12.33;6.60;;;;;;;18.96;59.37;100183.77;2072941;84;21597;-85
2022/06/27 01:20:35;;;;;;;10.08;5.05;;;;;;;18.89;59.46;100175.74;2070804;84;21054;-76
2022/06/27 01:23:45;;;;;;;7.67;5.03;;;;;;;18.80;59.55;100173.85;2053769;85;21090;-73
2022/06/27 01:26:52;;;;;;;7.20;5.20;;;;;;;18.73;59.71;100182.48;2055461;85;21112;-75
2022/06/27 01:29:53;;;;;;;7.65;5.20;;;;;;;18.66;59.88;100176.84;2051565;85;21039;-72
2022/06/27 01:32:59;;;;;;;7.05;5.00;;;;;;;18.58;60.01;100177.42;2056995;84;21061;-71
2022/06/27 01:39:27;;;;;;;9.23;5.12;;;;;;;18.53;60.27;100172.40;2060741;84;21081;-74
2022/06/27 01:42:31;;;;;;;9.35;5.45;;;;;;;18.46;60.51;100172.95;2055092;85;21029;-80
2022/06/27 01:45:33;;;;;;;6.37;5.47;;;;;;;18.40;60.85;100174.64;2056235;85;21171;-72
2022/06/27 01:48:48;;;;;;;7.30;5.90;;;;;;;18.35;61.05;100175.81;2057474;85;21529;-73
2022/06/27 01:51:52;;;;;;;9.40;5.65;;;;;;;18.31;61.15;100173.27;2029988;85;21107;-75
2022/06/27 01:54:56;;;;;;;6.92;5.80;;;;;;;18.21;61.30;100172.90;2054001;85;21105;-75
2022/06/27 01:57:59;;;;;;;7.67;5.50;;;;;;;18.15;61.64;100169.21;2053557;85;21559;-87
2022/06/27 02:01:05;;;;;;;9.03;5.90;;;;;;;18.09;61.76;100167.39;2050126;85;21053;-72
2022/06/27 02:04:13;;;;;;;7.37;5.75;;;;;;;18.03;62.01;100170.94;2050376;85;21636;-72
2022/06/27 02:07:14;;;;;;;9.70;5.92;;;;;;;17.98;62.13;100170.23;2051147;85;21584;-90
2022/06/27 02:10:18;;;;;;;8.38;6.00;;;;;;;17.93;62.26;100168.70;2038206;85;20964;-75
2022/06/27 02:13:23;;;;;;;9.63;6.22;;;;;;;17.92;62.27;100175.11;2049028;85;21662;-72
2022/06/27 02:16:25;;;;;;;10.78;5.80;;;;;;;17.88;62.44;100171.22;2036604;85;20962;-72
2022/06/27 02:19:29;;;;;;;9.75;5.65;;;;;;;17.86;62.51;100176.79;2050002;85;21041;-88
2022/06/27 02:22:32;;;;;;;9.38;6.70;;;;;;;17.86;62.62;100171.95;2069048;84;21063;-72
2022/06/27 02:25:35;;;;;;;6.95;5.72;;;;;;;17.85;62.56;100170.28;2075047;84;21002;-86
2022/06/27 02:28:37;;;;;;;11.83;6.08;;;;;;;17.84;62.65;100173.48;2072003;84;21010;-74
2022/06/27 02:31:50;;;;;;;9.33;6.15;;;;;;;17.82;62.70;100169.36;2068405;84;21500;-74
2022/06/27 02:34:51;;;;;;;12.20;6.10;;;;;;;17.79;62.68;100176.50;2072903;84;21038;-78
2022/06/27 02:37:53;;;;;;;10.08;6.08;;;;;;;17.76;62.73;100172.87;2073216;84;20946;-73
2022/06/27 02:40:59;;;;;;;6.80;6.03;;;;;;;17.73;62.84;100174.12;2068833;84;21000;-72
2022/06/27 02:44:11;;;;;;;9.38;6.35;;;;;;;17.71;62.84;100170.84;2049442;84;22397;-79
2022/06/27 02:47:14;;;;;;;9.08;6.70;;;;;;;17.70;62.93;100175.89;2069274;84;21599;-72
2022/06/27 02:50:19;;;;;;;7.30;5.97;;;;;;;17.70;62.96;100175.36;2071378;84;21063;-72
2022/06/27 02:53:29;;;;;;;9.35;5.97;;;;;;;17.73;63.01;100176.80;2073417;84;21006;-72
2022/06/27 02:56:35;;;;;;;10.45;6.37;;;;;;;17.74;63.02;100185.17;2066756;84;20998;-79
2022/06/27 02:59:41;;;;;;;10.48;6.03;;;;;;;17.75;63.06;100181.97;2070814;84;21060;-72
2022/06/27 03:02:46;;;;;;;10.53;6.45;;;;;;;17.74;63.12;100185.17;2068794;84;21145;-72
2022/06/27 03:06:10;;;;;;;6.85;5.08;;;;;;;17.75;63.15;100191.36;2065950;84;22280;-79
2022/06/27 03:09:13;;;;;;;8.08;6.00;;;;;;;17.77;63.20;100192.80;2073422;84;21042;-86
2022/06/27 03:12:17;;;;;;;8.73;6.03;;;;;;;17.79;63.25;100189.40;2070920;84;21047;-72
2022/06/27 03:15:18;;;;;;;9.25;5.97;;;;;;;17.84;63.33;100198.16;2066766;84;20998;-72
2022/06/27 03:18:21;;;;;;;7.50;5.78;;;;;;;17.86;63.36;100199.61;2073744;84;21540;-75
2022/06/27 03:21:34;;;;;;;9.78;6.67;;;;;;;17.88;63.43;100200.22;2071489;84;21109;-75
2022/06/27 03:24:38;;;;;;;9.90;6.45;;;;;;;17.93;63.50;100192.86;2084493;84;22537;-71
2022/06/27 03:27:42;;;;;;;13.85;6.35;;;;;;;17.95;63.50;100196.16;2085206;84;21611;-72
2022/06/27 03:30:44;;;;;;;9.35;6.35;;;;;;;18.03;63.76;100196.45;2081505;84;20982;-75
2022/06/27 03:33:49;;;;;;;10.25;5.95;;;;;;;18.25;63.60;100195.62;2079090;84;21691;-73
2022/06/27 03:37:02;;;;;;;14.07;5.97;;;;;;;18.57;63.44;100199.13;2011700;84;21063;-75
2022/06/27 03:40:05;;;;;;;9.90;5.78;;;;;;;18.91;63.16;100199.73;2085756;84;21148;-72
2022/06/27 03:43:13;;;;;;;7.05;5.78;;;;;;;19.28;62.83;100203.85;2081570;84;21040;-73
2022/06/27 03:46:18;;;;;;;8.23;6.30;;;;;;;19.69;62.49;100209.45;2085623;84;21072;-73
2022/06/27 03:52:54;;;;;;;7.87;5.50;;;;;;;20.59;61.68;100214.11;2082845;84;21450;-72
2022/06/27 03:55:52;;;;;;;8.65;5.47;;;;;;;21.09;61.13;100210.72;2083411;84;21037;-71
2022/06/27 03:58:56;;;;;;;6.53;5.67;;;;;;;21.56;60.52;100209.41;2080926;84;21044;-72
2022/06/27 04:01:58;;;;;;;8.88;5.60;;;;;;;21.98;59.78;100213.25;2084147;84;21013;-84
2022/06/27 04:05:06;;;;;;;6.78;5.65;;;;;;;22.39;58.97;100214.89;2081452;84;21077;-71
2022/06/27 04:08:19;;;;;;;5.58;4.90;;;;;;;22.73;58.29;100214.95;2083999;84;21389;-73
2022/06/27 04:11:17;;;;;;;6.03;5.45;;;;;;;22.96;57.26;100216.70;2082431;84;21657;-72
2022/06/27 04:14:24;;;;;;;7.35;5.83;;;;;;;23.15;57.10;100215.93;2087536;84;21009;-76
2022/06/27 04:17:44;;;;;;;7.58;5.33;;;;;;;23.62;56.62;100222.27;2084876;84;21481;-73
2022/06/27 04:20:56;;;;;;;8.63;5.20;;;;;;;24.12;56.08;100219.94;2058179;84;21065;-77
2022/06/27 04:24:02;;;;;;;6.85;5.10;;;;;;;24.44;54.91;100220.06;2051428;85;21074;-72
2022/06/27 04:27:13;;;;;;;5.20;4.70;;;;;;;24.65;54.21;100227.03;2051994;85;21078;-73
2022/06/27 04:30:21;;;;;;;7.90;4.55;;;;;;;24.81;53.44;100228.81;2050424;85;21075;-72
2022/06/27 04:33:23;;;;;;;6.85;4.45;;;;;;;24.85;53.24;100233.17;2050640;85;21950;-86
2022/06/27 04:36:27;;;;;;;9.85;5.03;;;;;;;25.00;52.66;100226.50;2051744;85;21061;-73
2022/06/27 04:39:30;;;;;;;7.08;4.70;;;;;;;25.11;52.35;100224.14;2032885;85;21037;-72
2022/06/27 04:42:36;;;;;;;5.67;4.55;;;;;;;25.09;51.67;100223.61;2053543;85;21041;-73
2022/06/27 04:45:47;;;;;;;5.62;5.03;;;;;;;24.98;51.04;100222.70;2052690;85;21085;-73
2022/06/27 04:48:55;;;;;;;8.83;4.75;;;;;;;24.80;51.03;100226.61;2059407;84;21612;-72
2022/06/27 04:51:59;;;;;;;5.78;4.67;;;;;;;24.85;50.73;100226.39;2060457;84;21105;-76
2022/06/27 04:55:07;;;;;;;10.48;4.50;;;;;;;24.70;50.69;100222.47;2066216;84;20998;-74
2022/06/27 04:58:12;;;;;;;9.63;4.55;;;;;;;24.81;51.54;100215.24;2064908;84;21549;-76
2022/06/27 05:01:15;;;;;;;6.95;4.60;;;;;;;25.04;51.09;100220.30;2062390;84;21093;-72
2022/06/27 05:04:24;;;;;;;5.22;4.67;;;;;;;25.40;51.04;100223.30;2062588;84;21089;-77
2022/06/27 05:07:28;;;;;;;7.92;4.58;;;;;;;25.95;50.77;100219.78;2066696;84;21132;-73
2022/06/27 05:10:34;;;;;;;5.00;4.50;;;;;;;26.30;50.35;100215.01;2062671;84;21081;-72
2022/06/27 05:13:37;;;;;;;12.50;4.72;;;;;;;26.70;49.65;100216.17;2064435;84;21673;-72
2022/06/27 05:16:40;;;;;;;9.83;4.80;;;;;;;26.97;49.57;100212.35;2061018;84;21082;-72
2022/06/27 05:19:44;;;;;;;7.40;4.42;;;;;;;27.44;49.09;100218.04;2067755;84;21018;-80
2022/06/27 05:22:47;;;;;;;6.40;4.40;;;;;;;27.74;48.47;100223.95;2071163;84;22411;-72
2022/06/27 05:25:49;;;;;;;7.70;4.80;;;;;;;27.94;47.87;100220.35;2082420;84;21623;-75
2022/06/27 05:28:55;;;;;;;8.03;4.75;;;;;;;28.19;47.78;100219.97;2080199;84;21080;-90
2022/06/27 05:31:57;;;;;;;6.55;4.80;;;;;;;28.35;47.22;100216.02;2077666;84;21001;-72
2022/06/27 05:34:59;;;;;;;5.22;4.72;;;;;;;28.58;46.61;100211.27;2081401;84;21013;-74
2022/06/27 05:38:01;;;;;;;7.25;4.85;;;;;;;28.50;46.18;100211.06;2077773;84;21029;-76
2022/06/27 05:41:07;;;;;;;4.72;4.30;;;;;;;28.66;45.83;100211.19;2076802;84;21064;-75
2022/06/27 05:44:15;;;;;;;7.08;4.55;;;;;;;28.78;45.88;100212.22;2081699;84;21453;-76
2022/06/27 05:47:19;;;;;;;6.25;4.75;;;;;;;28.78;45.40;100207.56;2080002;84;21008;-75
2022/06/27 05:50:22;;;;;;;6.42;4.72;;;;;;;28.83;45.29;100218.97;2077803;84;21042;-73
2022/06/27 05:53:27;;;;;;;6.42;4.33;;;;;;;28.75;45.24;100216.88;2080168;84;21048;-78
2022/06/27 05:56:30;;;;;;;7.83;4.70;;;;;;;28.81;45.02;100219.28;2079254;84;21307;-89
2022/06/27 05:59:31;;;;;;;6.53;4.50;;;;;;;28.62;44.96;100225.16;2058622;84;21416;-72
2022/06/27 06:02:34;;;;;;;4.92;4.33;;;;;;;28.82;45.49;100225.55;2080266;84;21112;-77
2022/06/27 06:05:37;;;;;;;8.95;4.58;;;;;;;28.98;44.65;100228.42;2082932;84;20994;-72
2022/06/27 06:08:43;;;;;;;5.40;4.25;;;;;;;28.97;44.80;100225.41;2078903;84;21075;-73
2022/06/27 06:11:48;;;;;;;5.22;4.60;;;;;;;29.16;44.30;100227.47;2078625;84;21088;-74
2022/06/27 06:14:52;;;;;;;5.25;4.75;;;;;;;29.16;44.30;100227.47;2080912;84;21010;-75
2022/06/27 06:17:56;;;;;;;6.17;4.75;;;;;;;29.14;44.72;100231.03;2078748;84;21567;-72
2022/06/27 06:21:06;;;;;;;8.23;4.20;;;;;;;29.37;44.57;100226.17;2080732;84;21039;-72
2022/06/27 06:24:09;;;;;;;8.53;4.55;;;;;;;29.56;44.00;100219.94;2063721;83;21069;-79
2022/06/27 06:27:11;;;;;;;5.25;4.15;;;;;;;29.56;44.00;100219.94;2087184;83;21014;-85
2022/06/27 06:30:13;;;;;;;9.48;4.15;;;;;;;29.62;43.39;100219.61;2087114;83;21078;-71
2022/06/27 06:33:18;;;;;;;8.33;4.83;;;;;;;29.66;43.84;100208.93;2086136;83;21525;-73
2022/06/27 06:36:24;;;;;;;5.30;4.58;;;;;;;29.82;43.08;100209.53;2089102;83;21484;-74
2022/06/27 06:39:26;;;;;;;6.37;4.35;;;;;;;29.81;43.58;100181.94;2086231;83;21116;-71
2022/06/27 06:42:28;;;;;;;7.78;4.42;;;;;;;29.80;42.15;100213.14;2060957;83;20982;-76
2022/06/27 06:45:34;;;;;;;5.83;3.87;;;;;;;29.55;42.66;100205.47;2082768;83;21073;-72
2022/06/27 06:48:40;;;;;;;5.75;4.05;;;;;;;29.66;42.94;100211.10;2086368;83;21085;-89
2022/06/27 06:51:42;;;;;;;10.93;5.00;;;;;;;29.72;42.84;100176.31;2078802;83;21643;-75
2022/06/27 06:54:45;;;;;;;5.85;4.35;;;;;;;29.72;42.84;100176.31;2086969;83;20999;-72
2022/06/27 06:57:46;;;;;;;5.47;4.10;;;;;;;29.96;42.43;100200.06;2086675;83;21033;-74
2022/06/27 07:00:50;;;;;;;5.97;4.05;;;;;;;30.23;42.81;100201.62;2083466;83;21010;-74
2022/06/27 07:03:54;;;;;;;6.45;3.95;;;;;;;30.47;42.12;100198.02;2090620;83;22281;-73
2022/06/27 07:06:57;;;;;;;8.35;3.90;;;;;;;30.61;41.65;100200.25;2086645;83;21156;-73
2022/06/27 07:10:01;;;;;;;6.05;4.08;;;;;;;30.54;41.97;100202.54;2087272;83;21528;-72
2022/06/27 07:13:03;;;;;;;4.85;3.98;;;;;;;30.68;41.64;100200.66;2085606;83;21077;-72
2022/06/27 07:16:07;;;;;;;5.50;4.08;;;;;;;30.73;42.09;100203.33;2084173;83;21486;-74
2022/06/27 07:19:10;;;;;;;4.35;3.83;;;;;;;30.89;41.42;100200.34;2084582;83;21699;-84
2022/06/27 07:22:18;;;;;;;6.22;3.80;;;;;;;30.77;40.60;100201.59;2085425;83;21109;-72
2022/06/27 07:25:18;;;;;;;6.30;4.15;;;;;;;30.59;41.33;100203.27;2053148;84;21460;-72
2022/06/27 07:28:26;;;;;;;6.08;3.83;;;;;;;30.72;41.15;100200.34;2061945;84;21003;-72
2022/06/27 07:31:27;;;;;;;4.87;3.75;;;;;;;30.94;40.97;100189.30;2061072;84;21049;-73
2022/06/27 07:34:32;;;;;;;5.65;3.60;;;;;;;31.03;40.75;100182.04;2056677;84;21031;-73
2022/06/27 07:37:34;;;;;;;5.47;3.65;;;;;;;30.89;40.74;100196.23;2054996;84;21485;-72
2022/06/27 07:40:44;;;;;;;5.45;3.75;;;;;;;31.09;40.26;100194.53;2055867;84;21735;-78
2022/06/27 07:43:48;;;;;;;5.37;3.80;;;;;;;31.21;40.04;100192.09;2058334;84;21026;-71
2022/06/27 07:46:52;;;;;;;6.20;3.90;;;;;;;31.08;39.84;100197.55;2058154;84;21021;-73
2022/06/27 07:50:02;;;;;;;8.05;3.80;;;;;;;31.15;39.73;100187.83;2054417;84;21097;-71
2022/06/27 07:53:18;;;;;;;5.95;3.92;;;;;;;31.30;39.93;100190.03;2054508;84;21033;-76
2022/06/27 07:56:22;;;;;;;3.85;3.45;;;;;;;31.32;39.34;100185.06;2052571;84;20991;-79
2022/06/27 07:59:25;;;;;;;7.15;3.83;;;;;;;31.25;39.32;100194.50;2057050;84;21493;-74
2022/06/27 08:02:34;;;;;;;5.60;3.60;;;;;;;31.19;39.34;100184.73;2058358;84;21601;-72
2022/06/27 08:05:33;;;;;;;7.47;3.62;;;;;;;31.58;39.61;100190.31;2059186;84;21054;-72
2022/06/27 08:08:41;;;;;;;4.37;3.47;;;;;;;31.61;39.32;100202.03;2057020;84;21112;-72
2022/06/27 08:11:43;;;;;;;5.17;3.12;;;;;;;31.37;38.40;100190.48;2056651;84;21098;-88
2022/06/27 08:14:47;;;;;;;6.37;3.70;;;;;;;31.27;39.44;100175.00;2062794;84;21103;-72
2022/06/27 08:17:49;;;;;;;5.87;3.98;;;;;;;31.46;39.23;100174.94;2056129;84;21100;-76
2022/06/27 08:20:51;;;;;;;4.50;3.72;;;;;;;31.56;39.34;100187.62;2054086;84;21033;-72
2022/06/27 08:24:00;;;;;;;6.70;4.10;;;;;;;31.76;38.86;100180.89;2063460;84;22205;-75
2022/06/27 08:27:04;;;;;;;3.73;3.03;;;;;;;31.76;38.74;100181.70;2063934;84;21504;-73
2022/06/27 08:30:08;;;;;;;7.78;3.65;;;;;;;31.85;38.91;100185.93;2063019;84;20979;-72
2022/06/27 08:33:12;;;;;;;10.28;3.40;;;;;;;31.86;38.07;100191.66;2061998;84;21060;-72
2022/06/27 08:36:17;;;;;;;6.92;3.35;;;;;;;31.75;37.24;100186.14;2063155;84;21013;-73
2022/06/27 08:39:18;;;;;;;3.95;3.27;;;;;;;31.60;38.05;100182.60;2064574;84;21054;-72
2022/06/27 08:42:21;;;;;;;5.95;2.83;;;;;;;31.83;37.34;100185.42;2063552;84;21048;-86
2022/06/27 08:45:26;;;;;;;5.97;3.35;;;;;;;31.96;37.53;100198.34;2062741;84;20947;-75
2022/06/27 08:48:31;;;;;;;5.72;3.00;;;;;;;32.12;36.85;100189.19;2063406;84;20989;-71
2022/06/27 08:51:33;;;;;;;4.58;2.92;;;;;;;32.15;36.38;100190.74;2059015;84;21081;-78
2022/06/27 08:54:39;;;;;;;5.00;3.33;;;;;;;32.06;35.70;100193.98;2065884;84;21045;-80
2022/06/27 08:57:42;;;;;;;4.90;3.08;;;;;;;32.01;36.49;100187.23;2036588;84;21474;-73
2022/06/27 09:00:48;;;;;;;5.67;3.60;;;;;;;32.08;36.08;100188.20;2062826;84;21104;-86
2022/06/27 09:04:09;;;;;;;3.83;3.10;;;;;;;32.16;35.65;100186.09;2067428;84;21049;-72
2022/06/27 09:07:11;;;;;;;6.10;3.27;;;;;;;32.15;36.29;100185.82;2066369;84;21010;-74
2022/06/27 09:10:39;;;;;;;3.65;3.08;;;;;;;32.10;35.69;100186.77;2063123;84;21018;-72
2022/06/27 09:13:41;;;;;;;5.15;3.60;;;;;;;32.19;35.56;100182.73;2064320;84;21053;-72
2022/06/27 09:16:47;;;;;;;4.28;3.00;;;;;;;32.20;35.80;100176.11;2039971;84;21568;-76
2022/06/27 09:19:55;;;;;;;3.40;3.10;;;;;;;32.21;34.68;100176.34;2059844;84;21053;-74
2022/06/27 09:22:59;;;;;;;4.80;3.00;;;;;;;32.28;34.87;100175.94;2066688;84;21061;-82
2022/06/27 09:26:05;;;;;;;4.40;2.98;;;;;;;32.52;34.34;100181.98;2052592;84;21022;-73
2022/06/27 09:29:14;;;;;;;4.47;3.15;;;;;;;32.45;34.80;100174.69;2062398;84;21078;-72
2022/06/27 09:32:22;;;;;;;8.03;3.35;;;;;;;32.56;34.12;100167.05;2081437;84;21069;-71
2022/06/27 09:35:31;;;;;;;5.60;3.20;;;;;;;32.81;34.08;100179.33;2077188;84;21058;-72
2022/06/27 09:38:33;;;;;;;5.10;3.20;;;;;;;32.97;34.81;100163.23;2083299;84;21643;-72
2022/06/27 09:41:35;;;;;;;3.85;3.10;;;;;;;33.27;34.38;100165.75;2079284;84;21084;-73
2022/06/27 09:44:45;;;;;;;5.20;3.45;;;;;;;33.49;34.12;100164.30;2081676;84;21109;-72
2022/06/27 09:47:47;;;;;;;4.10;3.62;;;;;;;33.59;33.51;100161.02;2080064;84;21775;-71
2022/06/27 09:50:51;;;;;;;3.87;3.58;;;;;;;33.64;32.96;100145.75;2083872;84;21034;-72
2022/06/27 09:53:53;;;;;;;3.30;2.80;;;;;;;33.73;32.40;100150.69;2083764;84;20998;-71
2022/06/27 09:56:56;;;;;;;5.70;3.33;;;;;;;33.73;31.22;100143.02;2057618;84;21040;-76
2022/06/27 10:00:00;;;;;;;4.08;3.10;;;;;;;33.55;31.85;100147.68;2078702;84;21052;-76
2022/06/27 10:03:02;;;;;;;4.72;3.05;;;;;;;33.73;30.76;100141.63;2085407;84;20958;-71
2022/06/27 10:06:05;;;;;;;4.58;3.10;;;;;;;33.80;31.13;100141.41;2083361;84;21060;-71
2022/06/27 10:09:09;;;;;;;3.05;2.72;;;;;;;34.03;29.12;100125.55;2081551;84;21032;-70
2022/06/27 10:12:28;;;;;;;5.70;3.20;;;;;;;33.85;27.96;100131.63;2076932;84;21611;-71
2022/06/27 10:15:32;;;;;;;4.13;2.90;;;;;;;33.86;28.53;100123.61;2081412;84;21593;-73
2022/06/27 10:19:02;;;;;;;5.72;2.90;;;;;;;33.90;29.26;100123.22;2077952;84;21045;-71
2022/06/27 10:22:04;;;;;;;3.60;2.92;;;;;;;34.03;29.59;100114.55;2080284;84;20942;-72
2022/06/27 10:25:30;;;;;;;3.85;2.95;;;;;;;33.96;29.96;100111.48;2064907;83;21512;-74
2022/06/27 10:28:36;;;;;;;5.42;3.35;;;;;;;33.96;29.66;100109.27;2089897;83;21021;-71
2022/06/27 10:31:46;;;;;;;10.25;3.20;;;;;;;33.90;30.09;100108.09;2089918;83;21103;-84
2022/06/27 10:34:55;;;;;;;8.30;3.20;;;;;;;34.08;30.42;100110.86;2088294;83;21559;-75
2022/06/27 10:38:01;;;;;;;4.17;3.20;;;;;;;34.07;30.57;100103.72;2089567;83;21548;-71
2022/06/27 10:41:03;;;;;;;4.47;3.35;;;;;;;34.06;30.38;100098.78;2090403;83;21115;-71
2022/06/27 10:44:06;;;;;;;3.65;2.92;;;;;;;34.06;30.26;100104.29;2086041;83;21549;-71
2022/06/27 10:47:13;;;;;;;5.75;3.47;;;;;;;34.05;30.35;100097.17;2088725;83;21159;-71
2022/06/27 10:50:17;;;;;;;3.90;3.50;;;;;;;33.93;30.64;100097.80;2082143;83;21091;-72
2022/06/27 10:53:24;;;;;;;5.55;4.15;;;;;;;33.96;30.52;100098.27;2087764;83;21040;-74
2022/06/27 10:56:45;;;;;;;6.30;4.20;;;;;;;33.79;31.08;100097.16;2091252;83;21635;-72
2022/06/27 10:59:52;;;;;;;8.68;3.47;;;;;;;33.87;31.37;100088.64;2089590;83;20991;-72
2022/06/27 11:02:54;;;;;;;5.55;3.85;;;;;;;33.99;31.24;100075.05;2009537;87;21612;-72
2022/06/27 11:06:03;;;;;;;7.50;3.83;;;;;;;34.31;31.31;100075.11;2090121;84;21029;-78
2022/06/27 11:09:04;;;;;;;;;;;;;;;34.37;31.43;100071.05;2056959;84;21323;-72
2022/06/27 11:12:08;;;;;;;4.30;3.90;;;;;;;34.41;31.05;100064.88;2043032;85;20125;-72
2022/06/27 11:15:11;;;;;;;7.08;4.05;;;;;;;34.42;31.03;100061.01;2085785;84;21003;-77
2022/06/27 11:18:12;;;;;;;5.78;4.53;;;;;;;34.69;31.30;100055.66;2079637;84;21068;-71
2022/06/27 11:21:24;;;;;;;5.55;4.00;;;;;;;34.58;30.82;100058.00;2080329;84;21041;-72
2022/06/27 11:24:29;;;;;;;6.33;3.90;;;;;;;34.38;31.43;100058.08;2070553;84;21393;-73
2022/06/27 11:27:53;;;;;;;6.33;4.10;;;;;;;34.14;31.25;100055.88;2063096;84;21066;-76
2022/06/27 11:34:18;;;;;;;6.08;3.67;;;;;;;34.02;31.42;100051.01;2057528;84;21470;-73
2022/06/27 11:37:23;;;;;;;6.03;3.42;;;;;;;34.04;31.23;100043.27;2053264;84;21017;-72
2022/06/27 11:40:24;;;;;;;5.90;4.20;;;;;;;34.02;31.15;100044.70;2059326;84;21077;-73
2022/06/27 11:43:59;;;;;;;6.05;3.85;;;;;;;33.88;30.79;100055.88;2051792;84;21545;-72
2022/06/27 11:47:08;;;;;;;5.50;3.50;;;;;;;33.79;31.31;100050.38;2057348;84;21318;-73
2022/06/27 11:50:18;;;;;;;3.92;3.52;;;;;;;33.77;31.25;100034.75;2057129;84;21046;-81
2022/06/27 11:53:19;;;;;;;8.48;4.00;;;;;;;33.84;30.77;100043.89;2058687;84;21039;-71
2022/06/27 11:56:24;;;;;;;7.17;4.00;;;;;;;33.96;29.75;100039.09;2063113;84;21002;-72
2022/06/27 11:59:25;;;;;;;5.50;3.45;;;;;;;33.99;29.82;100042.03;2061880;84;21077;-70
2022/06/27 12:02:31;;;;;;;6.65;4.03;;;;;;;34.17;30.54;100035.14;2051978;84;22329;-76
2022/06/27 12:05:35;;;;;;;4.75;3.27;;;;;;;34.43;30.67;100028.98;2055244;84;20966;-72
2022/06/27 12:08:41;;;;;;;5.67;3.55;;;;;;;34.54;30.19;100030.82;2059710;84;21077;-73
2022/06/27 12:11:59;;;;;;;4.78;3.40;;;;;;;34.54;29.84;100020.61;2043987;84;21577;-73
2022/06/27 12:15:00;;;;;;;4.75;3.92;;;;;;;34.67;30.00;100024.33;2055035;84;21006;-72
2022/06/27 12:18:05;;;;;;;4.33;3.90;;;;;;;34.66;29.84;100024.06;2055470;84;20955;-74
2022/06/27 12:21:08;;;;;;;9.60;3.80;;;;;;;34.57;30.41;100016.42;2056913;84;21097;-75
2022/06/27 12:24:11;;;;;;;8.90;4.05;;;;;;;34.20;30.02;100020.73;2045220;84;21398;-77
2022/06/27 12:27:13;;;;;;;10.80;4.10;;;;;;;34.00;30.11;100018.06;2006332;87;21011;-72
2022/06/27 12:30:15;;;;;;;8.55;4.03;;;;;;;34.04;30.49;100021.25;1989241;87;21025;-73
2022/06/27 12:33:17;;;;;;;6.83;3.45;;;;;;;34.13;30.12;100013.78;2010550;87;21069;-72
2022/06/27 12:36:18;;;;;;;6.67;3.60;;;;;;;34.28;29.38;100015.20;2006136;87;21093;-73
2022/06/27 12:39:20;;;;;;;4.72;3.50;;;;;;;34.36;29.51;100013.56;2013937;87;21555;-72
2022/06/27 12:42:22;;;;;;;5.20;3.72;;;;;;;34.53;29.55;100007.18;2013434;87;21030;-73
2022/06/27 12:45:24;;;;;;;8.63;3.60;;;;;;;34.51;29.24;100008.07;2003739;87;21047;-73
2022/06/27 12:48:26;;;;;;;7.35;3.85;;;;;;;34.27;29.32;100007.25;2013358;87;21568;-72
2022/06/27 12:51:29;;;;;;;4.08;3.40;;;;;;;34.21;29.40;100007.98;2012709;87;21082;-72
2022/06/27 12:54:34;;;;;;;6.35;2.87;;;;;;;34.19;29.44;100008.91;2011929;87;21123;-71
2022/06/27 12:57:36;;;;;;;3.25;2.47;;;;;;;34.11;29.63;100001.48;2009759;87;21091;-75
2022/06/27 13:00:37;;;;;;;2.70;2.50;;;;;;;34.10;28.89;100003.97;2008131;87;21568;-88
2022/06/27 13:03:42;;;;;;;4.40;2.33;;;;;;;34.19;28.88;99996.52;2010452;87;21097;-72
2022/06/27 13:06:44;;;;;;;4.08;2.72;;;;;;;33.96;29.01;99999.19;2009640;87;21054;-72
2022/06/27 13:09:46;;;;;;;6.53;2.47;;;;;;;33.78;28.31;100002.55;2004542;87;21141;-72
2022/06/27 13:12:47;;;;;;;4.20;2.30;;;;;;;33.60;28.34;100001.75;2005833;87;21055;-72
2022/06/27 13:15:49;;;;;;;4.85;2.42;;;;;;;33.70;28.89;100002.24;2007442;87;21043;-72
2022/06/27 13:18:50;;;;;;;12.20;2.87;;;;;;;33.85;28.23;99996.00;1991430;87;21049;-75
2022/06/27 13:21:54;;;;;;;6.45;2.50;;;;;;;34.05;28.69;100001.41;2010544;87;21061;-76
2022/06/27 13:24:57;;;;;;;3.00;2.35;;;;;;;34.12;28.11;99989.32;2034065;84;21017;-71
2022/06/27 13:27:59;;;;;;;6.28;2.80;;;;;;;34.17;28.42;99998.78;2051927;84;21053;-72
2022/06/27 13:31:03;;;;;;;6.87;2.20;;;;;;;34.26;29.19;99987.74;2056285;84;21061;-71
2022/06/27 13:34:07;;;;;;;4.58;2.58;;;;;;;34.40;28.62;99988.92;2052314;84;20994;-74
2022/06/27 13:37:09;;;;;;;4.12;2.30;;;;;;;34.44;28.43;99987.11;2033003;84;21017;-72
2022/06/27 13:40:11;;;;;;;2.83;2.27;;;;;;;34.42;28.21;99990.78;2054637;84;21026;-83
2022/06/27 13:43:15;;;;;;;2.52;2.33;;;;;;;34.31;28.15;99987.00;2054662;84;20985;-71
2022/06/27 13:46:16;;;;;;;2.80;2.42;;;;;;;34.23;28.74;99982.90;2059154;84;21912;-72
2022/06/27 13:49:18;;;;;;;3.83;2.62;;;;;;;34.13;29.95;99977.19;2053302;84;21017;-74
2022/06/27 13:52:20;;;;;;;4.33;2.20;;;;;;;34.19;29.99;99975.88;2059474;84;22391;-72
2022/06/27 13:55:21;;;;;;;3.10;2.67;;;;;;;34.21;29.43;99981.03;2063032;84;21047;-72
2022/06/27 13:58:23;;;;;;;3.85;2.45;;;;;;;34.18;29.59;99981.13;2056898;84;21709;-71
2022/06/27 14:01:27;;;;;;;3.62;2.75;;;;;;;34.24;30.03;99978.45;2055073;84;21500;-74
2022/06/27 14:04:29;;;;;;;3.75;2.10;;;;;;;34.19;29.91;99977.25;2060163;84;21587;-75
2022/06/27 14:07:36;;;;;;;2.85;2.25;;;;;;;34.09;30.68;99975.64;2055004;84;21053;-71
2022/06/27 14:10:56;;;;;;;2.65;2.08;;;;;;;33.91;30.82;99983.11;2033085;84;21091;-72
2022/06/27 14:13:57;;;;;;;2.30;2.10;;;;;;;33.88;31.12;99981.58;2057399;84;21054;-81
2022/06/27 14:16:59;;;;;;;3.98;2.45;;;;;;;33.93;31.56;99976.72;2065471;84;21101;-71
2022/06/27 14:20:01;;;;;;;5.47;2.00;;;;;;;33.95;32.15;99984.63;2056506;84;21081;-73
2022/06/27 14:23:02;;;;;;;2.12;1.87;;;;;;;33.88;31.77;99978.26;2056908;84;21109;-72
2022/06/27 14:26:04;;;;;;;3.77;1.77;;;;;;;33.80;31.46;99989.28;2071715;84;21092;-75
2022/06/27 14:29:06;;;;;;;4.72;2.00;;;;;;;33.64;31.85;99980.13;2067231;84;21474;-74
2022/06/27 14:32:08;;;;;;;2.10;1.90;;;;;;;33.54;31.61;99975.55;2070468;84;20960;-74